トゥールーズ の空港の天気 - METARとTAF

トゥールーズ・ブラニャック空港 ( LFBO / TLS ) - フランス トゥールーズ
飛行場実況気象(Metar)
観測時間02/05 22:00 CET (02/05 21:00 UTC)
風向・風速西北西 5m/s
視程10km以上
天気現象
全天を覆う雲 雲底高度 1460m
気温8℃
湿度71%
気圧1035hPa
METARLFBO 052100Z AUTO 29009KT 9999 OVC048 08/03 Q1035 NOSIG
過去の天気等 Google飛行場航空写真 Wunderground天気予報

過去48時間のMETAR

飛行場予報(TAF)
発表時間: 2/05 18:00 CET (2/05 17:00 UTC)
予報対象時間: 5日19時 CET ~ 7日1時 CET
風向・風速西 5m/s
視程10km以上
全天の8割程度の雲 雲底高度 1220m
6日3時 CET ~ 6日5時 CET に徐々に
風向・風速不定 2m/s
視程10km以上
なし
6日6時 CET ~ 6日12時 CET に 確率 30% で一時的に
全天の8割程度の雲 雲底高度 400m
TAF LFBO 051700Z 0518/0624 28010KT 9999 BKN040
BECMG 0602/0604 VRB03KT CAVOK
PROB30 TEMPO 0605/0611 BKN013